Time;durP1;ratioP1;P1;durP2;ratioP2;P2;SDS_P1;SDS_P2;PMS_P1;PMS_P2;Temp;Humidity;BMP_temperature;BMP_pressure;BME280_temperature;BME280_humidity;BME280_pressure;Samples;Min_cycle;Max_cycle;Signal;HPM_P1;HPM_P2
2022/01/15 00:01:31;;;;;;;60.08;23.27;;;-2.10;99.90;;;;;;4948912;28;20451;-68
2022/01/15 00:03:56;;;;;;;57.40;22.55;;;-2.10;99.90;;;;;;4948222;28;20481;-68
2022/01/15 00:06:22;;;;;;;67.90;23.13;;;-2.10;99.90;;;;;;4949323;28;20059;-69
2022/01/15 00:08:48;;;;;;;61.40;23.55;;;-2.20;99.90;;;;;;4950067;28;20039;-68
2022/01/15 00:11:13;;;;;;;64.75;23.52;;;-2.20;99.90;;;;;;4948516;29;20158;-68
2022/01/15 00:13:43;;;;;;;57.13;22.15;;;-2.20;99.90;;;;;;4949440;28;20042;-68
2022/01/15 00:16:27;;;;;;;60.00;22.73;;;-2.10;99.90;;;;;;4950605;28;20039;-67
2022/01/15 00:21:27;;;;;;;46.70;18.92;;;-2.20;99.90;;;;;;4953470;28;20038;-66
2022/01/15 00:23:53;;;;;;;53.90;20.48;;;-2.20;99.90;;;;;;4945418;28;20027;-69
2022/01/15 00:26:19;;;;;;;58.15;22.42;;;-2.20;99.90;;;;;;4951859;28;20035;-67
2022/01/15 00:28:44;;;;;;;53.60;21.02;;;-2.20;99.90;;;;;;4952671;29;20046;-66
2022/01/15 00:31:10;;;;;;;51.60;20.08;;;-2.20;99.90;;;;;;4950882;29;20042;-67
2022/01/15 00:33:36;;;;;;;48.90;18.17;;;-2.20;99.90;;;;;;4953373;28;20119;-68
2022/01/15 00:36:02;;;;;;;48.08;17.40;;;-2.20;99.90;;;;;;4954086;28;20114;-66
2022/01/15 00:38:27;;;;;;;42.58;16.73;;;-2.30;99.90;;;;;;4952946;28;20027;-66
2022/01/15 00:40:53;;;;;;;53.60;21.48;;;-2.30;99.90;;;;;;4951577;28;20721;-70
2022/01/15 00:43:20;;;;;;;52.42;18.98;;;-2.20;99.90;;;;;;4957013;28;20057;-68
2022/01/15 00:45:47;;;;;;;43.40;17.60;;;-2.30;99.90;;;;;;4955405;28;20043;-68
2022/01/15 00:48:13;;;;;;;43.08;16.75;;;-2.40;99.90;;;;;;4954036;28;20043;-67
2022/01/15 00:50:39;;;;;;;44.83;15.98;;;-2.40;99.90;;;;;;4953059;28;20086;-67
2022/01/15 00:53:05;;;;;;;37.30;15.95;;;-2.30;99.90;;;;;;4953167;28;20031;-68
2022/01/15 00:55:30;;;;;;;42.15;15.73;;;-2.40;99.90;;;;;;4952527;28;20177;-68
2022/01/15 00:57:56;;;;;;;45.00;16.10;;;-2.40;99.90;;;;;;4957642;28;20023;-70
2022/01/15 01:00:23;;;;;;;48.05;18.23;;;-2.30;99.90;;;;;;4952669;28;20039;-68
2022/01/15 01:02:50;;;;;;;48.22;19.35;;;-2.30;99.90;;;;;;4953446;28;20023;-68
2022/01/15 01:05:15;;;;;;;47.55;18.40;;;-2.30;99.90;;;;;;4948334;28;20127;-68
2022/01/15 01:07:42;;;;;;;47.13;17.83;;;-2.40;99.90;;;;;;4952314;28;20499;-68
2022/01/15 01:23:15;;;;;;;54.00;19.15;;;-2.50;99.90;;;;;;4951350;28;20039;-67
2022/01/15 01:25:45;;;;;;;47.53;18.50;;;-2.50;99.90;;;;;;4951701;29;20254;-68
2022/01/15 01:28:34;;;;;;;42.58;16.73;;;-2.60;99.90;;;;;;4952294;28;20031;-68
2022/01/15 01:31:16;;;;;;;36.78;15.25;;;-2.60;99.90;;;;;;4953162;29;20515;-70
2022/01/15 01:33:46;;;;;;;39.60;14.57;;;-2.60;99.90;;;;;;4950372;28;20047;-68
2022/01/15 01:38:54;;;;;;;41.25;16.70;;;-2.70;99.90;;;;;;4957642;28;20403;-66
2022/01/15 01:41:22;;;;;;;36.33;14.55;;;-2.70;99.90;;;;;;4953857;28;20034;-67
2022/01/15 01:43:59;;;;;;;38.10;14.80;;;-2.80;99.90;;;;;;4952549;28;20479;-66
2022/01/15 01:48:53;;;;;;;54.97;21.20;;;-2.70;99.90;;;;;;4954216;28;20472;-67
2022/01/15 01:51:39;;;;;;;60.55;23.05;;;-2.70;99.90;;;;;;4952944;28;20594;-67
2022/01/15 01:54:07;;;;;;;58.60;21.90;;;-2.80;99.90;;;;;;4949652;28;20476;-69
2022/01/15 01:56:33;;;;;;;50.88;20.23;;;-2.90;99.90;;;;;;4955830;28;20039;-67
2022/01/15 01:58:59;;;;;;;51.45;17.55;;;-3.00;99.90;;;;;;4954426;28;20031;-70
2022/01/15 02:01:26;;;;;;;46.60;15.30;;;-3.00;99.90;;;;;;4952738;28;20460;-68
2022/01/15 02:03:52;;;;;;;42.63;15.93;;;-2.90;99.90;;;;;;4954433;28;20102;-66
2022/01/15 02:06:19;;;;;;;37.10;16.27;;;-2.90;99.90;;;;;;4953349;28;20051;-67
2022/01/15 02:08:46;;;;;;;39.22;15.48;;;-2.80;99.90;;;;;;4956002;28;20570;-67
2022/01/15 02:11:12;;;;;;;42.85;15.23;;;-2.80;99.90;;;;;;4954599;28;20035;-67
2022/01/15 02:13:40;;;;;;;44.78;16.23;;;-2.80;99.90;;;;;;4956940;29;20078;-66
2022/01/15 02:16:06;;;;;;;37.75;15.10;;;-2.80;99.90;;;;;;4954365;28;20059;-67
2022/01/15 02:18:34;;;;;;;41.67;14.88;;;-2.80;99.90;;;;;;4969681;28;20048;-70
2022/01/15 02:23:44;;;;;;;42.00;15.40;;;-2.80;99.90;;;;;;4951291;28;20031;-68
2022/01/15 02:26:23;;;;;;;40.20;15.45;;;-2.80;99.90;;;;;;4947690;28;20039;-66
2022/01/15 02:29:00;;;;;;;42.88;15.35;;;-2.80;99.90;;;;;;4951166;28;20031;-69
2022/01/15 02:31:29;;;;;;;44.35;15.82;;;-2.80;99.90;;;;;;4951107;28;20396;-68
2022/01/15 02:33:56;;;;;;;45.17;16.42;;;-2.80;99.90;;;;;;4952682;28;20039;-68
2022/01/15 02:36:24;;;;;;;44.33;16.67;;;-2.80;99.90;;;;;;4956245;28;20061;-68
2022/01/15 02:38:50;;;;;;;45.05;16.45;;;-2.80;99.90;;;;;;4950155;28;20118;-68
2022/01/15 02:41:34;;;;;;;39.47;15.38;;;-2.80;99.90;;;;;;4949878;28;20534;-67
2022/01/15 02:44:02;;;;;;;43.17;16.35;;;-2.80;99.90;;;;;;4948298;29;20035;-68
2022/01/15 02:48:56;;;;;;;40.67;15.02;;;-2.70;99.90;;;;;;4952543;28;20038;-66
2022/01/15 02:51:25;;;;;;;40.70;14.93;;;-2.80;99.90;;;;;;4944885;28;20106;-67
2022/01/15 02:53:57;;;;;;;43.67;16.27;;;-2.80;99.90;;;;;;4949291;28;20027;-67
2022/01/15 02:56:27;;;;;;;42.33;15.75;;;-2.80;99.90;;;;;;4951181;28;20030;-67
2022/01/15 02:58:54;;;;;;;58.05;28.02;;;-2.80;99.90;;;;;;4963622;28;20035;-69
2022/01/15 03:01:20;;;;;;;53.35;18.95;;;-2.70;99.90;;;;;;4949584;28;20396;-68
2022/01/15 03:03:46;;;;;;;51.95;18.90;;;-2.70;99.90;;;;;;4951060;28;20043;-66
2022/01/15 03:06:14;;;;;;;48.90;16.15;;;-2.80;99.90;;;;;;4948971;28;20058;-67
2022/01/15 03:08:42;;;;;;;42.58;15.98;;;-2.90;99.90;;;;;;4954368;28;20122;-66
2022/01/15 03:11:08;;;;;;;42.38;16.33;;;-2.90;99.90;;;;;;4948247;29;20031;-66
2022/01/15 03:13:36;;;;;;;43.50;17.13;;;-2.90;99.90;;;;;;4950536;28;20054;-68
2022/01/15 03:16:01;;;;;;;41.53;14.88;;;-2.90;99.90;;;;;;4949784;29;20063;-67
2022/01/15 03:18:27;;;;;;;43.22;15.25;;;-2.90;99.90;;;;;;4950524;28;20082;-68
2022/01/15 03:20:53;;;;;;;42.38;16.05;;;-2.80;99.90;;;;;;4966335;28;20138;-68
2022/01/15 03:23:18;;;;;;;41.97;15.77;;;-2.90;99.90;;;;;;4952165;28;20024;-68
2022/01/15 03:25:44;;;;;;;35.88;14.75;;;-2.90;99.90;;;;;;4950295;29;20117;-68
2022/01/15 03:28:10;;;;;;;40.28;15.50;;;-2.90;99.90;;;;;;4948776;28;20162;-68
2022/01/15 03:30:36;;;;;;;44.17;15.63;;;-2.90;99.90;;;;;;4948577;28;20122;-69
2022/01/15 03:33:02;;;;;;;38.60;14.70;;;-2.90;99.90;;;;;;4950194;28;20035;-69
2022/01/15 03:35:28;;;;;;;39.35;14.85;;;-3.00;99.90;;;;;;4952367;28;20494;-68
2022/01/15 03:37:54;;;;;;;41.45;16.08;;;-3.10;99.90;;;;;;4942894;29;20036;-68
2022/01/15 03:40:19;;;;;;;40.47;15.57;;;-3.10;99.90;;;;;;4954325;29;20036;-68
2022/01/15 03:42:46;;;;;;;42.13;14.90;;;-3.10;99.90;;;;;;4945507;29;20107;-66
2022/01/15 03:45:14;;;;;;;38.95;15.13;;;-3.10;99.90;;;;;;4954403;28;20102;-68
2022/01/15 03:47:41;;;;;;;37.50;14.65;;;-3.00;99.90;;;;;;4954742;28;20031;-68
2022/01/15 03:50:07;;;;;;;39.95;14.88;;;-3.00;99.90;;;;;;4957873;28;20087;-70
2022/01/15 03:52:34;;;;;;;39.97;15.13;;;-3.00;99.90;;;;;;4965178;28;20032;-68
2022/01/15 03:55:00;;;;;;;41.95;15.15;;;-3.00;99.90;;;;;;4955619;28;20023;-68
2022/01/15 03:57:26;;;;;;;37.75;14.45;;;-3.00;99.90;;;;;;4956112;28;20055;-67
2022/01/15 03:59:52;;;;;;;33.97;14.20;;;-3.00;99.90;;;;;;4953428;28;20127;-68
2022/01/15 04:02:18;;;;;;;42.00;14.60;;;-3.00;99.90;;;;;;4952872;29;20042;-68
2022/01/15 04:04:43;;;;;;;43.17;14.77;;;-3.00;99.90;;;;;;4951206;29;20035;-68
2022/01/15 04:07:09;;;;;;;40.85;14.60;;;-3.00;99.90;;;;;;4952568;28;20105;-70
2022/01/15 04:09:35;;;;;;;44.92;16.48;;;-3.00;99.90;;;;;;4953314;29;20050;-67
2022/01/15 04:12:01;;;;;;;45.42;16.10;;;-3.00;99.90;;;;;;4953500;28;20765;-67
2022/01/15 04:14:26;;;;;;;40.65;15.98;;;-3.10;99.90;;;;;;4952233;28;20023;-68
2022/01/15 04:16:52;;;;;;;36.95;14.98;;;-3.20;99.90;;;;;;4953927;29;20499;-68
2022/01/15 04:19:18;;;;;;;34.25;13.90;;;-3.20;99.90;;;;;;4951919;29;20057;-68
2022/01/15 04:21:43;;;;;;;36.70;14.10;;;-3.20;99.90;;;;;;4953159;28;20058;-68
2022/01/15 04:24:09;;;;;;;35.40;14.73;;;-3.20;99.90;;;;;;4953970;28;20046;-70
2022/01/15 04:26:35;;;;;;;40.22;13.82;;;-3.20;99.90;;;;;;4953600;28;20046;-68
2022/01/15 04:29:04;;;;;;;35.90;13.27;;;-3.20;99.90;;;;;;4953384;29;20042;-67
2022/01/15 04:31:51;;;;;;;35.20;13.88;;;-3.20;99.90;;;;;;4952581;28;20023;-68
2022/01/15 04:34:20;;;;;;;38.40;14.50;;;-3.20;99.90;;;;;;4953337;29;20125;-68
2022/01/15 04:36:46;;;;;;;45.30;14.77;;;-3.10;99.90;;;;;;4951122;28;20118;-68
2022/01/15 04:39:13;;;;;;;44.50;16.15;;;-3.10;99.90;;;;;;4951855;28;20538;-70
2022/01/15 04:41:38;;;;;;;42.50;15.40;;;-3.20;99.90;;;;;;4952715;28;20027;-68
2022/01/15 04:44:05;;;;;;;41.97;14.23;;;-3.30;99.90;;;;;;4953653;28;20093;-68
2022/01/15 04:46:32;;;;;;;33.97;14.07;;;-3.30;99.90;;;;;;4949670;28;20054;-68
2022/01/15 04:48:57;;;;;;;34.40;13.43;;;-3.30;99.90;;;;;;4954946;28;20082;-69
2022/01/15 04:51:23;;;;;;;37.63;12.80;;;-3.30;99.90;;;;;;4953633;28;20115;-68
2022/01/15 04:53:49;;;;;;;32.05;13.02;;;-3.30;99.90;;;;;;4952505;28;20029;-66
2022/01/15 04:56:15;;;;;;;36.17;12.90;;;-3.30;99.90;;;;;;4953534;28;20114;-67
2022/01/15 04:58:40;;;;;;;33.42;11.73;;;-3.30;99.90;;;;;;4966282;28;20038;-67
2022/01/15 05:01:06;;;;;;;29.83;12.07;;;-3.40;99.90;;;;;;4959392;28;20036;-66
2022/01/15 05:03:35;;;;;;;35.55;13.32;;;-3.30;99.90;;;;;;4954067;28;20081;-68
2022/01/15 05:06:00;;;;;;;36.65;12.95;;;-3.30;99.90;;;;;;4954447;28;20078;-67
2022/01/15 05:08:26;;;;;;;38.08;14.13;;;-3.30;99.90;;;;;;4954010;28;20067;-68
2022/01/15 05:10:54;;;;;;;39.35;14.32;;;-3.30;99.90;;;;;;4953599;28;20039;-66
2022/01/15 05:13:26;;;;;;;44.33;15.68;;;-3.20;99.90;;;;;;4954995;28;20034;-67
2022/01/15 05:15:52;;;;;;;45.58;17.60;;;-3.20;99.90;;;;;;4969450;28;20065;-68
2022/01/15 05:18:18;;;;;;;77.28;25.98;;;-3.10;99.90;;;;;;4964331;28;20046;-69
2022/01/15 05:20:45;;;;;;;105.38;33.05;;;-3.10;99.90;;;;;;4952186;28;20089;-68
2022/01/15 05:23:11;;;;;;;153.85;44.80;;;-3.00;99.90;;;;;;4952277;28;20476;-68
2022/01/15 05:25:37;;;;;;;136.75;38.53;;;-2.90;99.90;;;;;;4951640;28;20031;-69
2022/01/15 05:28:03;;;;;;;108.78;32.13;;;-2.80;99.90;;;;;;4956937;28;20077;-69
2022/01/15 05:30:31;;;;;;;99.15;29.92;;;-2.60;99.90;;;;;;4955632;28;20023;-70
2022/01/15 05:32:58;;;;;;;46.97;16.35;;;-2.60;99.90;;;;;;4946099;28;20126;-69
2022/01/15 05:35:26;;;;;;;41.42;15.63;;;-2.60;99.90;;;;;;4951778;28;20388;-69
2022/01/15 05:37:59;;;;;;;37.70;14.70;;;-2.80;99.90;;;;;;4953082;28;20412;-69
2022/01/15 05:40:25;;;;;;;37.33;14.15;;;-3.10;99.90;;;;;;4948484;28;20451;-67
2022/01/15 05:42:52;;;;;;;41.65;15.10;;;-3.20;99.90;;;;;;4955003;28;20043;-66
2022/01/15 05:45:19;;;;;;;37.50;14.38;;;-3.30;99.90;;;;;;4951071;28;20035;-69
2022/01/15 05:47:45;;;;;;;40.10;15.18;;;-3.30;99.90;;;;;;4952452;28;20134;-69
2022/01/15 05:50:11;;;;;;;85.32;26.60;;;-3.30;99.90;;;;;;4952628;29;20163;-69
2022/01/15 05:52:37;;;;;;;156.52;44.33;;;-3.20;99.90;;;;;;4951533;28;20038;-69
2022/01/15 05:55:03;;;;;;;103.65;30.95;;;-3.20;99.90;;;;;;4951075;29;20046;-69
2022/01/15 05:57:29;;;;;;;50.83;18.80;;;-3.20;99.90;;;;;;4951103;28;20352;-69
2022/01/15 05:59:55;;;;;;;44.03;15.70;;;-3.10;99.90;;;;;;4952470;29;20042;-69
2022/01/15 06:02:21;;;;;;;38.45;15.57;;;-3.20;99.90;;;;;;4948498;29;20447;-69
2022/01/15 06:04:47;;;;;;;44.15;16.30;;;-3.20;99.90;;;;;;4933520;29;20039;-69
2022/01/15 06:07:13;;;;;;;35.65;14.15;;;-3.10;99.90;;;;;;4933000;29;20119;-70
2022/01/15 06:09:39;;;;;;;38.97;14.45;;;-3.10;99.90;;;;;;4931512;29;20031;-69
2022/01/15 06:12:05;;;;;;;42.92;14.88;;;-3.10;99.90;;;;;;4948794;29;20061;-69
2022/01/15 06:14:31;;;;;;;41.97;14.93;;;-3.10;99.90;;;;;;4951180;28;20440;-69
2022/01/15 06:17:00;;;;;;;44.88;16.52;;;-3.10;99.90;;;;;;4951699;29;20090;-69
2022/01/15 06:19:32;;;;;;;40.92;15.45;;;-3.00;99.90;;;;;;4951515;28;20031;-69
2022/01/15 06:21:58;;;;;;;44.53;15.15;;;-3.00;99.90;;;;;;4951767;28;20527;-68
2022/01/15 06:24:23;;;;;;;43.00;15.55;;;-3.00;99.90;;;;;;4951448;28;20114;-68
2022/01/15 06:26:49;;;;;;;44.80;17.02;;;-3.00;99.90;;;;;;4950306;29;20396;-68
2022/01/15 06:29:15;;;;;;;46.25;17.88;;;-3.00;99.90;;;;;;4951960;29;20039;-70
2022/01/15 06:31:40;;;;;;;46.33;16.73;;;-3.00;99.90;;;;;;4960420;28;20035;-69
2022/01/15 06:34:06;;;;;;;44.47;16.13;;;-3.00;99.90;;;;;;4951186;28;20101;-68
2022/01/15 06:36:32;;;;;;;48.22;17.25;;;-3.00;99.90;;;;;;4949488;29;20035;-68
2022/01/15 06:38:57;;;;;;;47.13;16.85;;;-3.00;99.90;;;;;;4951548;28;20039;-69
2022/01/15 06:41:23;;;;;;;42.80;15.82;;;-3.00;99.90;;;;;;4950903;28;20442;-68
2022/01/15 06:43:49;;;;;;;40.95;16.13;;;-3.10;99.90;;;;;;4951123;28;20070;-68
2022/01/15 06:46:15;;;;;;;39.13;15.38;;;-3.10;99.90;;;;;;4949130;29;20039;-68
2022/01/15 06:48:40;;;;;;;50.33;16.42;;;-3.10;99.90;;;;;;4951253;29;20608;-70
2022/01/15 06:51:06;;;;;;;43.28;15.35;;;-3.10;99.90;;;;;;4948016;29;20039;-69
2022/01/15 06:53:32;;;;;;;45.13;15.77;;;-3.10;99.90;;;;;;4950264;28;20647;-69
2022/01/15 06:55:57;;;;;;;46.42;15.98;;;-3.10;99.90;;;;;;4951296;28;20392;-69
2022/01/15 06:58:23;;;;;;;35.53;14.38;;;-3.10;99.90;;;;;;4950495;29;20039;-69
2022/01/15 07:00:50;;;;;;;42.78;15.20;;;-3.20;99.90;;;;;;4951218;28;20035;-69
2022/01/15 07:03:16;;;;;;;38.58;15.48;;;-3.20;99.90;;;;;;4949453;29;20085;-69
2022/01/15 07:05:42;;;;;;;41.47;15.00;;;-3.20;99.90;;;;;;4949984;28;20098;-69
2022/01/15 07:08:08;;;;;;;46.67;17.67;;;-3.20;99.90;;;;;;4951634;29;20476;-69
2022/01/15 07:10:34;;;;;;;43.95;15.40;;;-3.20;99.90;;;;;;4950130;29;20031;-69
2022/01/15 07:13:00;;;;;;;44.65;16.67;;;-3.10;99.90;;;;;;4950752;28;20487;-69
2022/01/15 07:15:26;;;;;;;42.00;16.38;;;-3.20;99.90;;;;;;4950182;29;20039;-68
2022/01/15 07:17:52;;;;;;;45.25;16.10;;;-3.20;99.90;;;;;;4949975;29;20035;-69
2022/01/15 07:20:19;;;;;;;45.20;16.40;;;-3.20;99.90;;;;;;4950426;29;20480;-71
2022/01/15 07:22:45;;;;;;;43.67;16.20;;;-3.20;99.90;;;;;;4950305;28;20039;-70
2022/01/15 07:25:11;;;;;;;48.03;17.42;;;-3.20;99.90;;;;;;4951113;28;20043;-69
2022/01/15 07:27:38;;;;;;;43.33;16.48;;;-3.10;99.90;;;;;;4950024;29;20051;-69
2022/01/15 07:30:06;;;;;;;47.22;17.38;;;-3.10;99.90;;;;;;4950967;28;20085;-69
2022/01/15 07:32:32;;;;;;;41.05;15.45;;;-3.10;99.90;;;;;;4949594;28;20039;-69
2022/01/15 07:34:58;;;;;;;40.40;15.43;;;-3.10;99.90;;;;;;4961496;28;20042;-69
2022/01/15 07:37:24;;;;;;;44.92;16.25;;;-3.10;99.90;;;;;;4967825;28;20030;-70
2022/01/15 07:39:49;;;;;;;42.40;16.30;;;-3.10;99.90;;;;;;4950893;28;20031;-69
2022/01/15 07:42:15;;;;;;;51.30;16.15;;;-3.10;99.90;;;;;;4950180;28;20023;-69
2022/01/15 07:44:41;;;;;;;52.13;18.95;;;-3.10;99.90;;;;;;4949594;28;20079;-68
2022/01/15 07:47:07;;;;;;;40.83;15.95;;;-3.10;99.90;;;;;;4950214;29;20384;-69
2022/01/15 07:49:33;;;;;;;42.60;16.38;;;-3.00;99.90;;;;;;4950284;28;20043;-70
2022/01/15 07:51:59;;;;;;;41.53;15.07;;;-3.00;99.90;;;;;;4950076;28;20051;-70
2022/01/15 07:54:25;;;;;;;39.83;15.23;;;-3.00;99.90;;;;;;4947261;29;20027;-70
2022/01/15 07:56:54;;;;;;;45.47;15.90;;;-3.00;99.90;;;;;;4950564;29;20390;-70
2022/01/15 07:59:21;;;;;;;41.65;16.63;;;-3.00;99.90;;;;;;4950202;28;20112;-70
2022/01/15 08:01:47;;;;;;;45.42;16.67;;;-3.00;99.90;;;;;;4949339;29;20023;-70
2022/01/15 08:04:12;;;;;;;45.42;17.77;;;-2.90;99.90;;;;;;4949726;29;20447;-70
2022/01/15 08:06:40;;;;;;;51.53;19.05;;;-2.80;99.90;;;;;;4950024;28;20051;-70
2022/01/15 08:09:06;;;;;;;51.58;19.17;;;-2.70;99.90;;;;;;4950255;28;20047;-70
2022/01/15 08:11:31;;;;;;;50.75;18.63;;;-2.60;99.90;;;;;;4949435;29;20031;-70
2022/01/15 08:13:57;;;;;;;46.20;17.23;;;-2.50;99.90;;;;;;4950411;29;20066;-70
2022/01/15 08:16:23;;;;;;;120.45;37.67;;;-2.40;99.90;;;;;;4950404;28;20086;-70
2022/01/15 08:18:49;;;;;;;74.97;25.30;;;-2.30;99.90;;;;;;4950133;28;20540;-70
2022/01/15 08:21:14;;;;;;;165.43;47.30;;;-2.20;99.90;;;;;;4950550;28;20743;-70
2022/01/15 08:23:40;;;;;;;67.97;24.02;;;-2.10;99.90;;;;;;4949706;28;20850;-70
2022/01/15 08:26:06;;;;;;;501.02;123.22;;;-2.00;99.90;;;;;;4950167;29;20435;-70
2022/01/15 08:28:32;;;;;;;397.63;106.53;;;-2.00;99.90;;;;;;4949673;28;20043;-69
2022/01/15 08:30:58;;;;;;;246.60;69.65;;;-1.80;99.90;;;;;;4950768;28;20083;-69
2022/01/15 08:33:23;;;;;;;344.23;101.82;;;-1.70;99.90;;;;;;4949755;28;20106;-70
2022/01/15 08:35:49;;;;;;;160.85;51.35;;;-1.50;99.90;;;;;;4949961;28;20440;-71
2022/01/15 08:38:15;;;;;;;81.18;30.67;;;-1.30;99.90;;;;;;4953021;28;20488;-69
2022/01/15 08:40:42;;;;;;;110.05;37.40;;;-1.20;99.90;;;;;;4952913;29;20442;-70
2022/01/15 08:43:08;;;;;;;132.50;47.35;;;-1.10;99.90;;;;;;4953835;28;20111;-70
2022/01/15 08:45:36;;;;;;;89.55;32.00;;;-0.90;99.90;;;;;;4952864;28;20472;-70
2022/01/15 08:48:02;;;;;;;82.28;28.70;;;-0.70;99.90;;;;;;4952569;29;20039;-69
2022/01/15 08:50:27;;;;;;;80.18;29.58;;;-0.60;99.90;;;;;;4951242;29;20499;-70
2022/01/15 08:52:53;;;;;;;75.80;28.98;;;-0.60;99.90;;;;;;4953673;28;20110;-71
2022/01/15 08:55:20;;;;;;;72.43;26.83;;;-0.50;99.90;;;;;;4952254;29;20141;-70
2022/01/15 08:57:46;;;;;;;72.35;26.70;;;-0.30;99.90;;;;;;4952767;28;20102;-69
2022/01/15 09:00:16;;;;;;;83.07;29.25;;;-0.30;99.90;;;;;;4953153;28;20111;-68
2022/01/15 09:02:42;;;;;;;74.03;28.50;;;-0.10;99.90;;;;;;4948460;29;20065;-69
2022/01/15 09:05:08;;;;;;;81.85;29.92;;;-0.10;99.90;;;;;;4940272;28;20296;-67
2022/01/15 09:07:34;;;;;;;79.13;27.75;;;0.00;99.90;;;;;;4944799;29;20052;-67
2022/01/15 09:09:59;;;;;;;81.20;27.65;;;0.10;99.90;;;;;;4953242;29;20079;-69
2022/01/15 09:12:25;;;;;;;73.72;24.95;;;0.10;99.90;;;;;;4951644;29;20031;-71
2022/01/15 09:14:58;;;;;;;71.30;26.50;;;0.30;99.90;;;;;;4952526;29;20035;-69
2022/01/15 09:17:28;;;;;;;72.72;25.35;;;0.30;99.90;;;;;;4952928;29;20365;-72
2022/01/15 09:19:54;;;;;;;71.95;24.27;;;0.40;99.90;;;;;;4953079;29;20032;-68
2022/01/15 09:22:21;;;;;;;71.68;26.27;;;0.40;99.90;;;;;;4951619;29;20035;-67
2022/01/15 09:24:47;;;;;;;72.53;26.48;;;0.50;99.90;;;;;;4952325;28;20170;-67
2022/01/15 09:30:15;;;;;;;77.10;27.75;;;0.60;99.90;;;;;;4952971;29;20073;-69
2022/01/15 09:32:46;;;;;;;67.88;25.63;;;0.70;99.90;;;;;;4950961;29;20042;-68
2022/01/15 09:35:14;;;;;;;74.10;25.83;;;0.80;99.90;;;;;;4952813;28;20055;-68
2022/01/15 09:37:41;;;;;;;71.25;26.33;;;0.90;99.90;;;;;;4951493;28;20057;-68
2022/01/15 09:40:09;;;;;;;74.90;28.23;;;1.00;99.90;;;;;;4952796;28;20076;-67
2022/01/15 09:42:35;;;;;;;79.15;26.63;;;1.00;99.90;;;;;;4952121;28;20023;-66
2022/01/15 09:45:03;;;;;;;73.22;25.67;;;1.10;99.90;;;;;;4952913;28;20538;-67
2022/01/15 09:47:29;;;;;;;73.85;24.90;;;1.10;99.90;;;;;;4950767;28;20407;-72
2022/01/15 09:49:57;;;;;;;74.80;26.35;;;1.20;99.90;;;;;;4952643;28;20035;-65
2022/01/15 09:52:23;;;;;;;69.60;23.67;;;1.30;99.90;;;;;;4952247;28;20491;-67
2022/01/15 09:54:50;;;;;;;62.58;21.98;;;1.50;99.90;;;;;;4952122;28;20170;-67
2022/01/15 09:57:16;;;;;;;67.13;21.52;;;1.50;99.90;;;;;;4952495;28;20031;-68
2022/01/15 09:59:42;;;;;;;63.58;22.02;;;1.50;99.90;;;;;;4950570;29;20042;-69
2022/01/15 10:02:09;;;;;;;59.75;20.75;;;1.60;99.90;;;;;;4952286;29;20133;-68
2022/01/15 10:04:35;;;;;;;55.70;19.35;;;1.60;99.90;;;;;;4951936;29;20107;-68
2022/01/15 10:07:28;;;;;;;57.50;20.40;;;1.70;99.90;;;;;;4934875;29;20512;-68
2022/01/15 10:09:55;;;;;;;53.95;19.23;;;1.80;99.90;;;;;;4949386;28;20047;-69
2022/01/15 10:12:27;;;;;;;51.63;18.65;;;1.80;99.90;;;;;;4952478;29;20620;-68
2022/01/15 10:14:57;;;;;;;53.67;19.15;;;1.90;99.90;;;;;;4951658;29;20473;-68
2022/01/15 10:17:29;;;;;;;47.45;18.65;;;2.00;99.90;;;;;;4952064;28;20035;-69
2022/01/15 10:19:58;;;;;;;55.85;18.48;;;2.10;99.90;;;;;;4951102;28;20562;-67
2022/01/15 10:22:26;;;;;;;53.05;18.05;;;2.20;99.90;;;;;;4951858;28;20027;-70
2022/01/15 10:25:00;;;;;;;50.03;17.30;;;2.30;99.90;;;;;;4949750;28;20256;-69
2022/01/15 10:27:37;;;;;;;52.28;17.15;;;2.30;99.90;;;;;;4951367;29;20058;-69
2022/01/15 10:30:11;;;;;;;51.83;17.77;;;2.30;99.90;;;;;;4951461;28;20030;-70
2022/01/15 10:32:38;;;;;;;44.30;17.17;;;2.30;99.90;;;;;;4948381;29;20135;-68
2022/01/15 10:35:15;;;;;;;50.05;18.10;;;2.50;99.90;;;;;;4952006;28;20102;-69
2022/01/15 10:37:52;;;;;;;45.28;17.05;;;2.50;99.90;;;;;;4948127;28;20532;-71
2022/01/15 10:40:20;;;;;;;47.53;16.92;;;2.60;99.90;;;;;;4931419;29;20036;-69
2022/01/15 10:42:59;;;;;;;49.40;18.00;;;2.70;99.90;;;;;;4949406;29;20035;-70
2022/01/15 10:45:29;;;;;;;41.17;15.45;;;2.80;99.90;;;;;;4951963;28;20042;-69
2022/01/15 10:47:57;;;;;;;45.17;17.13;;;2.80;99.90;;;;;;4950657;28;20039;-66
2022/01/15 10:50:28;;;;;;;45.33;16.42;;;3.00;99.90;;;;;;4951744;28;20050;-72
2022/01/15 10:52:56;;;;;;;43.28;16.10;;;2.90;99.90;;;;;;4950457;28;20031;-71
2022/01/15 10:55:30;;;;;;;48.63;17.02;;;3.00;99.90;;;;;;4951117;28;20031;-69
2022/01/15 10:58:05;;;;;;;49.28;18.00;;;3.00;99.90;;;;;;4936149;29;20039;-68
2022/01/15 11:00:50;;;;;;;48.03;17.20;;;3.20;99.90;;;;;;4950387;28;20031;-68
2022/01/15 11:03:17;;;;;;;49.70;17.27;;;3.20;99.90;;;;;;4950356;29;20547;-70
2022/01/15 11:05:51;;;;;;;46.95;16.65;;;3.30;99.90;;;;;;4949034;29;20043;-68
2022/01/15 11:08:28;;;;;;;45.47;17.83;;;3.40;99.90;;;;;;4946691;28;20049;-68
2022/01/15 11:11:05;;;;;;;43.25;17.30;;;3.50;99.90;;;;;;4948268;28;20752;-68
2022/01/15 11:13:40;;;;;;;39.30;15.18;;;3.60;99.90;;;;;;4947470;29;20552;-68
2022/01/15 11:16:17;;;;;;;47.65;16.63;;;3.30;99.90;;;;;;4942163;29;20459;-69
2022/01/15 11:18:45;;;;;;;46.63;16.80;;;3.50;99.90;;;;;;4947047;29;20027;-69
2022/01/15 11:21:18;;;;;;;40.00;15.32;;;3.60;99.90;;;;;;4950909;28;20039;-70
2022/01/15 11:23:45;;;;;;;38.00;15.23;;;3.70;99.90;;;;;;4951826;28;20027;-68
2022/01/15 11:26:28;;;;;;;36.85;13.13;;;3.50;99.90;;;;;;4948893;29;20145;-70
2022/01/15 11:28:55;;;;;;;33.78;13.25;;;3.40;99.90;;;;;;4949814;28;20024;-69
2022/01/15 11:31:23;;;;;;;43.47;15.25;;;3.40;99.90;;;;;;4950408;28;20061;-69
2022/01/15 11:33:51;;;;;;;38.35;14.23;;;3.60;99.90;;;;;;4948932;28;20031;-67
2022/01/15 11:36:36;;;;;;;35.47;13.07;;;3.80;99.90;;;;;;4948772;28;20459;-69
2022/01/15 11:39:10;;;;;;;33.38;12.82;;;3.90;99.90;;;;;;4950085;28;20978;-69
2022/01/15 11:41:39;;;;;;;39.05;14.05;;;4.20;99.90;;;;;;4934474;28;20130;-67
2022/01/15 11:44:08;;;;;;;33.67;12.75;;;4.30;99.90;;;;;;4950137;28;20030;-69
2022/01/15 11:46:49;;;;;;;35.25;12.13;;;4.50;99.90;;;;;;4950492;28;20035;-67
2022/01/15 11:49:24;;;;;;;31.73;11.70;;;4.70;99.90;;;;;;4949764;29;20082;-68
2022/01/15 11:51:51;;;;;;;34.72;11.77;;;4.40;99.90;;;;;;4949043;28;20024;-70
2022/01/15 11:54:16;;;;;;;31.05;11.77;;;4.50;99.90;;;;;;4953399;28;20532;-68
2022/01/15 11:56:43;;;;;;;32.55;11.93;;;4.60;99.90;;;;;;4949398;28;20118;-68
2022/01/15 11:59:27;;;;;;;31.50;12.73;;;4.90;99.90;;;;;;4957800;28;20074;-69
2022/01/15 12:01:56;;;;;;;28.90;12.35;;;5.10;99.90;;;;;;4951224;28;20506;-68
2022/01/15 12:04:38;;;;;;;28.55;12.30;;;5.10;99.90;;;;;;4961141;28;20023;-70
2022/01/15 12:07:06;;;;;;;37.58;14.57;;;5.10;99.90;;;;;;4951138;28;20047;-68
2022/01/15 12:09:35;;;;;;;29.73;12.50;;;5.40;99.90;;;;;;4948701;28;20035;-68
2022/01/15 12:12:03;;;;;;;27.95;11.23;;;5.60;99.90;;;;;;4955594;28;20039;-71
2022/01/15 12:14:52;;;;;;;32.80;12.05;;;5.70;99.90;;;;;;4956528;28;20055;-71
2022/01/15 12:17:30;;;;;;;32.60;12.48;;;5.80;99.90;;;;;;4951093;28;21302;-70
2022/01/15 12:20:01;;;;;;;28.77;10.90;;;5.80;99.90;;;;;;4949000;28;20114;-70
2022/01/15 12:22:43;;;;;;;29.23;11.35;;;6.00;99.90;;;;;;4956440;28;20058;-72
2022/01/15 12:25:34;;;;;;;26.77;11.45;;;5.90;99.90;;;;;;4954793;28;20043;-71
2022/01/15 12:28:06;;;;;;;29.95;11.70;;;5.90;99.90;;;;;;4957465;28;20150;-70
2022/01/15 12:30:37;;;;;;;32.13;12.65;;;6.10;99.90;;;;;;4955185;28;20476;-70
2022/01/15 12:33:05;;;;;;;31.67;12.27;;;6.00;99.90;;;;;;4959436;28;20517;-69
2022/01/15 12:35:33;;;;;;;31.27;11.88;;;6.10;99.90;;;;;;4957267;28;20141;-70
2022/01/15 12:38:16;;;;;;;28.15;11.30;;;6.30;99.90;;;;;;4956257;28;20114;-70
2022/01/15 12:40:47;;;;;;;33.30;12.10;;;6.40;99.90;;;;;;4969067;28;20046;-69
2022/01/15 12:43:44;;;;;;;24.70;9.55;;;6.40;99.90;;;;;;4953495;28;20027;-71
2022/01/15 12:46:16;;;;;;;28.38;12.23;;;6.20;99.90;;;;;;4947096;28;20505;-71
2022/01/15 12:48:44;;;;;;;26.20;10.63;;;5.50;99.90;;;;;;4952835;28;20547;-71
2022/01/15 12:51:14;;;;;;;25.60;10.35;;;5.30;99.90;;;;;;4953966;28;20034;-71
2022/01/15 12:53:45;;;;;;;29.95;12.35;;;5.40;99.90;;;;;;4948285;28;20039;-69
2022/01/15 12:56:14;;;;;;;35.25;13.63;;;5.70;99.90;;;;;;4957030;28;20074;-70
2022/01/15 12:58:40;;;;;;;27.65;11.43;;;6.20;99.90;;;;;;4956310;28;20023;-68
2022/01/15 13:01:09;;;;;;;30.13;11.27;;;6.30;99.90;;;;;;4958869;28;20134;-70
2022/01/15 13:03:39;;;;;;;28.83;11.45;;;5.90;99.90;;;;;;4968145;28;20027;-69